Wetterdaten: Tageswerte
Station:   Jahr: 

      Diagramm: AllmendfeldCSV-Datei: Allmendfeld19.csv

Wetterdaten 2019 Station: Anzahl Tage: 365
Temperaturen in °C relative Nieder- Global- Wind Wind Sonnen-
Datum Boden Boden Luft Luft Luft Luft Feuchte schlag strahlung max schein
20 cm 5 cm 20 cm 2 m 2 m max 2 m min % mm W/m2*d m/s m/s h
01.01.2019 5,7 5,6 6,8 6,9 8,3 4,1 92 1,6 352 2,7 8,4 0,1
02.01.2019 5,4 4,1 3,5 3,7 6,7 -0,3 75 0,3 668 1,7 9,0 1,6
03.01.2019 4,1 2,0 -0,9 -0,8 0,6 -4,0 94 0,4 306 0,6 2,6 0,0
04.01.2019 3,6 2,1 0,9 0,9 4,1 -2,5 96 0,3 636 0,9 5,3 1,9
05.01.2019 3,9 3,4 5,0 5,1 7,9 2,6 92 5,2 164 2,0 7,7 0,0
06.01.2019 4,7 4,6 6,0 6,0 7,0 5,2 91 0,7 373 1,6 5,8 0,2
07.01.2019 5,1 4,6 4,9 4,9 7,4 3,4 90 2,9 660 1,6 5,1 1,7
08.01.2019 5,1 4,5 5,6 5,7 9,2 3,6 89 6,6 426 3,9 12,9 0,3
09.01.2019 4,8 3,7 3,4 3,4 5,2 1,4 82 2,8 516 2,1 11,3 0,9
10.01.2019 4,3 3,0 1,7 1,7 2,9 -1,0 80 0,0 327 0,9 5,4 0,0
11.01.2019 3,7 2,0 -0,1 -0,1 0,9 -1,3 97 1,8 215 1,5 5,1 0,0
12.01.2019 3,6 2,8 3,3 3,2 5,7 0,8 97 3,2 267 2,6 8,1 0,0
13.01.2019 4,4 4,6 7,3 7,5 11,7 4,5 93 4,7 158 3,0 11,4 0,0
14.01.2019 5,1 4,6 5,1 5,2 7,9 0,5 85 2,9 525 2,4 9,3 0,8
15.01.2019 4,6 3,6 4,1 4,2 6,6 1,7 87 0,1 545 2,5 6,8 1,1
16.01.2019 4,7 4,1 5,0 5,1 6,8 3,8 82 0,1 617 2,4 5,9 2,0
17.01.2019 4,8 4,2 6,3 6,3 13,3 1,6 84 1,1 679 3,6 13,6 1,7
18.01.2019 4,4 2,9 1,3 1,5 4,3 -1,7 83 0,0 1069 0,8 6,8 3,4
19.01.2019 3,3 1,0 -2,0 -1,7 3,2 -5,6 88 0,0 1186 0,7 4,8 4,1
20.01.2019 2,3 0,2 -3,8 -3,6 1,0 -8,0 90 0,0 1362 0,6 3,6 4,4
21.01.2019 1,8 -0,3 -4,1 -4,0 1,3 -7,4 89 0,0 1339 0,6 3,7 4,4
22.01.2019 1,4 -0,7 -4,3 -4,3 -0,7 -8,5 95 0,0 291 0,7 4,4 0,0
23.01.2019 1,2 -0,5 -1,6 -1,7 -0,4 -2,3 80 0,0 674 1,2 4,5 1,8
24.01.2019 1,1 -0,4 -2,5 -2,6 -1,3 -3,8 83 0,0 760 0,6 3,6 2,5
25.01.2019 1,0 -0,4 -1,3 -1,4 1,7 -4,1 87 0,0 731 1,8 5,4 2,4
26.01.2019 1,0 -0,3 2,1 2,2 4,4 -0,4 98 0,8 351 2,6 5,8 0,2
27.01.2019 1,4 1,0 5,6 5,7 7,8 2,3 89 2,4 338 3,2 8,9 0,2
28.01.2019 2,4 1,9 3,2 3,1 5,3 2,0 88 1,4 302 3,9 10,3 0,1
29.01.2019 2,4 1,5 1,4 1,6 5,0 -0,8 89 0,1 870 1,2 8,1 2,8
30.01.2019 2,0 0,8 1,1 1,2 3,7 -1,6 84 0,2 317 2,2 8,6 0,0
31.01.2019 1,8 0,7 0,0 0,2 2,4 -1,4 92 0,3 773 1,2 5,8 2,3
01.02.2019 1,9 1,2 1,9 2,0 4,3 0,0 95 0,9 612 0,7 6,0 0,5
02.02.2019 2,5 2,4 3,3 3,3 5,8 1,7 99 0,6 530 0,6 2,7 0,8
03.02.2019 3,0 2,6 3,0 3,1 4,2 1,2 85 0,0 605 1,5 6,9 0,7
04.02.2019 2,6 1,4 1,1 1,4 6,6 -2,7 84 0,0 1548 0,9 4,8 5,4
05.02.2019 2,3 1,4 2,0 2,3 5,6 -1,3 83 0,0 1019 0,9 3,4 3,7
06.02.2019 2,2 1,0 0,1 0,5 6,9 -4,3 90 0,0 1516 0,6 3,7 4,8
07.02.2019 1,9 0,9 1,7 1,8 5,2 -3,1 94 0,4 544 2,1 6,4 0,6
08.02.2019 2,5 2,7 6,3 6,4 9,7 3,5 84 0,1 803 2,7 7,8 2,3
09.02.2019 3,6 4,1 7,8 7,9 12,4 5,9 82 1,7 727 3,5 11,2 1,9
10.02.2019 4,3 4,7 8,7 8,6 13,2 5,9 81 1,4 352 4,2 13,3 0,0
11.02.2019 4,5 4,3 5,6 5,7 9,0 1,0 77 0,2 741 2,9 11,8 1,9
12.02.2019 4,0 3,3 3,1 3,3 8,1 -0,9 82 0,0 1257 1,2 5,7 4,7
13.02.2019 3,4 2,2 1,8 2,3 9,3 -2,4 84 0,0 1935 0,7 3,8 6,0
14.02.2019 2,8 1,4 -0,2 0,4 8,5 -5,4 91 0,0 1507 0,3 2,3 4,8
15.02.2019 2,5 1,4 2,4 3,3 15,0 -4,7 83 0,0 2014 0,4 2,5 5,5
16.02.2019 2,5 1,5 2,7 3,5 14,5 -4,8 85 0,0 2047 0,4 3,0 5,6
17.02.2019 2,6 1,8 2,3 3,2 15,9 -4,3 86 0,0 1990 0,3 2,2 5,9
18.02.2019 2,6 1,7 3,6 4,4 15,6 -5,1 78 0,0 2206 0,6 4,1 5,8
19.02.2019 2,9 2,5 5,7 6,5 12,9 2,1 78 0,0 1006 1,3 6,6 2,8
20.02.2019 3,0 2,5 4,5 5,1 12,9 -0,8 85 0,1 2168 0,6 3,6 5,9
21.02.2019 3,3 3,2 6,2 6,6 13,0 -1,3 88 0,0 1191 0,6 2,8 3,7
22.02.2019 4,5 5,3 8,9 9,2 13,9 4,0 83 0,0 1196 0,7 4,0 3,3
23.02.2019 4,5 3,8 4,9 5,3 11,0 -1,4 69 0,0 2546 1,5 5,5 6,5
24.02.2019 3,7 2,6 4,5 5,1 13,5 -2,3 46 0,0 2666 0,8 4,9 6,3
25.02.2019 3,5 2,7 6,3 7,0 17,4 -3,2 51 0,0 2758 0,8 4,2 6,6
26.02.2019 3,7 3,2 6,1 7,2 19,4 -3,5 67 0,0 2790 0,4 3,5 6,5
27.02.2019 3,8 3,3 5,2 6,3 18,3 -4,6 71 0,0 2970 0,3 3,1 6,7
28.02.2019 4,1 4,1 10,1 10,8 22,9 0,6 67 0,0 2776 2,9 17,1 6,7
01.03.2019 5,4 6,3 9,3 9,3 11,5 6,6 87 3,2 825 1,9 6,3 1,6
02.03.2019 5,8 6,1 8,1 8,2 12,3 5,5 86 0,0 1027 1,8 6,7 2,3
03.03.2019 6,2 6,8 10,5 10,6 12,3 8,9 78 0,0 447 2,8 7,0 0,3
04.03.2019 6,6 6,8 10,4 10,1 17,8 6,0 74 3,8 1095 4,4 21,6 2,5
05.03.2019 6,2 5,7 6,8 6,8 9,7 5,2 83 1,5 609 3,3 10,5 0,4
06.03.2019 5,9 5,9 9,2 9,6 16,7 2,2 75 0,1 2443 1,7 8,2 6,6
07.03.2019 6,7 7,2 11,7 11,6 17,2 6,1 68 1,7 1653 4,0 14,5 4,6
08.03.2019 6,7 6,4 8,0 8,1 12,2 5,9 78 1,1 1449 3,5 12,2 4,1
09.03.2019 6,6 6,6 11,4 10,9 16,7 7,6 74 0,0 1124 5,3 13,9 3,3
10.03.2019 7,2 7,6 12,2 12,2 21,3 4,4 75 4,4 1855 5,4 21,7 3,7
11.03.2019 6,6 5,5 6,0 6,2 11,4 2,8 65 0,0 1918 4,3 13,8 5,0
12.03.2019 5,7 4,8 6,0 6,2 10,7 -0,5 63 0,0 2975 2,7 8,1 7,0
13.03.2019 5,9 5,6 8,7 8,4 15,1 4,1 72 2,1 1988 5,2 15,4 5,7
14.03.2019 5,9 5,3 6,3 6,2 11,2 3,0 89 1,8 591 3,4 14,0 0,0
15.03.2019 6,1 6,3 10,1 10,0 17,4 5,9 88 5,0 655 3,7 12,7 1,2
16.03.2019 7,3 8,1 12,5 12,4 16,3 7,7 78 0,0 1120 4,7 16,6 2,7
17.03.2019 7,3 7,1 8,9 8,9 16,6 3,9 79 4,3 1588 3,6 12,8 3,6
18.03.2019 6,6 5,7 5,0 5,1 10,4 1,5 84 1,3 2628 2,2 8,2 5,9
19.03.2019 6,1 5,3 4,0 4,5 10,9 -1,9 76 0,1 4593 0,6 4,1 8,2
20.03.2019 5,8 4,9 4,1 4,8 14,0 -4,3 72 0,0 4577 0,5 3,3 8,2
21.03.2019 5,8 5,3 6,8 7,5 17,3 -3,4 65 0,0 4815 0,8 6,4 8,2
22.03.2019 6,3 6,3 8,9 9,8 20,7 -1,7 65 0,0 4405 0,8 4,8 8,2
23.03.2019 6,8 6,9 8,6 9,1 18,7 1,2 74 0,0 4568 0,8 5,8 8,2
24.03.2019 7,2 7,4 8,3 8,6 15,4 1,2 79 0,0 3574 1,1 5,3 7,4
25.03.2019 7,0 6,1 5,0 5,4 12,7 -0,9 78 3,5 2683 1,9 13,0 5,3
26.03.2019 6,5 5,8 5,0 5,3 8,9 -1,0 80 0,1 2457 0,7 6,0 7,1
27.03.2019 6,6 6,6 6,1 6,5 13,4 -0,3 75 0,0 4271 0,6 4,5 8,7
28.03.2019 6,9 6,8 7,3 7,7 16,7 -2,2 77 0,0 3927 0,8 6,8 7,3
29.03.2019 7,5 8,0 10,8 11,4 18,5 3,6 71 0,0 5313 1,2 7,1 8,8
30.03.2019 7,8 8,0 9,4 10,5 20,7 0,2 71 0,0 5289 0,7 5,5 8,7
31.03.2019 8,2 8,6 10,6 11,1 21,1 0,7 68 0,0 5305 1,2 7,7 8,7
01.04.2019 8,7 9,2 11,1 11,3 19,2 3,8 66 0,0 5221 1,4 5,8 8,7
02.04.2019 9,0 9,5 11,5 12,3 21,0 2,4 66 0,0 4225 1,4 10,6 8,3
03.04.2019 9,4 9,4 8,7 8,8 14,3 5,4 87 11,6 965 1,3 7,2 2,7
04.04.2019 8,6 7,7 5,6 5,6 7,5 4,0 95 1,3 775 1,0 4,4 1,2
05.04.2019 8,2 8,0 6,6 6,6 9,1 3,9 94 1,2 1352 0,6 3,6 4,8
06.04.2019 8,4 8,8 8,8 9,3 17,1 0,3 84 0,1 3809 0,6 7,1 8,7
07.04.2019 9,4 10,5 12,7 13,2 19,9 4,3 67 0,0 5831 0,8 4,4 9,0
08.04.2019 10,3 11,1 11,5 11,7 15,5 9,0 86 0,0 2245 1,4 5,2 7,0
09.04.2019 10,3 10,7 10,4 10,6 15,7 6,2 92 10,6 2043 0,6 4,9 5,5
10.04.2019 10,5 10,7 10,3 10,0 14,3 6,4 74 0,1 2523 1,3 7,8 6,3
11.04.2019 9,8 9,1 7,1 7,1 12,9 1,0 57 0,0 6460 1,8 8,8 9,4
12.04.2019 9,1 8,1 4,8 4,8 9,6 -0,8 61 0,0 4631 1,6 6,9 8,5
13.04.2019 8,8 8,1 4,5 4,3 8,2 2,2 72 1,5 2796 1,6 8,8 7,9
14.04.2019 8,7 8,5 6,0 5,9 12,8 1,5 76 1,8 4944 1,4 8,9 8,5
15.04.2019 8,9 9,0 9,9 10,3 18,6 1,1 66 0,0 6129 1,5 7,9 9,4
16.04.2019 9,6 10,2 11,7 12,2 19,1 3,1 59 0,0 5423 1,1 5,1 8,9
17.04.2019 10,8 12,4 13,3 13,6 19,3 9,4 75 4,4 4720 0,7 4,4 8,0
18.04.2019 11,4 12,1 15,0 15,8 22,3 7,6 50 0,0 6533 1,7 8,5 9,6
19.04.2019 11,7 12,6 16,1 17,3 25,0 8,7 44 0,0 6931 1,3 6,5 9,7
20.04.2019 12,1 12,9 16,2 17,2 25,5 7,9 46 0,0 6810 1,1 9,3 9,6
21.04.2019 12,5 13,3 17,1 18,1 25,6 9,2 41 0,0 6997 1,3 6,7 9,8
22.04.2019 12,6 13,0 16,1 17,3 25,7 3,1 45 0,0 6463 1,5 8,2 9,5
23.04.2019 12,7 13,4 15,2 16,0 21,0 10,6 55 0,0 4222 1,0 7,8 8,4
24.04.2019 13,0 13,8 14,4 15,0 26,4 6,5 74 0,3 5757 1,0 13,5 8,8
25.04.2019 12,9 13,2 12,7 13,4 25,6 2,1 72 0,1 4914 1,1 12,5 9,6
26.04.2019 12,7 12,2 9,8 10,1 13,9 6,2 90 4,7 1985 1,1 5,2 5,6
27.04.2019 12,0 11,4 9,4 9,6 13,6 7,3 91 8,0 2231 1,3 12,5 6,2
28.04.2019 11,4 11,2 8,7 8,7 13,7 3,7 78 0,0 5624 1,2 7,3 9,5
29.04.2019 11,4 10,9 7,9 8,1 15,3 1,3 88 1,8 3260 0,4 4,3 7,1
30.04.2019 12,1 13,2 12,9 13,2 19,2 8,4 68 0,4 7045 0,7 5,7 8,7
01.05.2019 12,6 13,3 12,3 13,1 20,9 3,3 68 0,0 7099 0,5 4,6 9,9
02.05.2019 13,1 13,7 12,3 12,8 20,2 5,6 75 3,0 5335 0,8 5,8 8,2
03.05.2019 13,2 13,2 11,3 11,6 15,8 8,0 70 0,0 3563 1,1 7,5 7,9
04.05.2019 12,4 11,6 6,4 6,5 9,5 4,0 85 5,4 2651 0,8 7,5 7,7
05.05.2019 11,4 10,4 6,1 6,2 12,1 -0,3 75 0,0 4447 0,8 5,8 9,3
06.05.2019 11,3 11,0 7,6 7,9 14,1 2,4 71 1,0 4857 0,8 6,2 9,8
07.05.2019 11,6 11,9 9,1 9,4 15,7 3,6 68 0,0 5067 0,5 4,9 9,6
08.05.2019 11,8 11,3 9,2 9,5 13,6 3,5 92 5,8 1545 0,8 5,4 4,4
09.05.2019 11,6 11,4 10,6 10,8 15,3 7,0 94 10,3 2034 1,6 7,1 7,3
10.05.2019 11,9 12,4 12,7 13,3 19,3 8,0 75 0,1 4806 1,2 7,2 9,8
11.05.2019 12,6 12,9 11,1 11,3 14,0 6,3 94 26,3 2132 0,9 5,6 6,0
12.05.2019 12,2 12,0 8,4 9,0 16,4 2,5 76 0,2 5075 0,7 5,5 8,2
13.05.2019 12,1 12,2 9,9 10,6 17,6 3,4 60 0,0 8062 0,8 6,5 10,4
14.05.2019 12,3 12,2 9,9 10,6 16,9 3,6 55 0,0 6377 0,9 9,0 10,0
15.05.2019 12,2 12,2 9,5 10,1 17,1 1,9 56 0,0 7669 0,9 6,6 9,7
16.05.2019 12,8 13,5 11,2 11,5 18,6 7,4 64 0,0 6334 0,7 5,0 8,3
17.05.2019 13,4 14,4 13,8 14,1 20,6 9,0 73 0,0 5698 0,7 5,3 9,1
18.05.2019 14,0 14,9 13,4 14,0 22,4 6,5 82 1,5 4532 0,5 5,6 7,8
19.05.2019 14,6 15,9 15,9 16,3 24,1 8,2 80 0,2 6355 0,5 4,5 9,8
20.05.2019 14,9 15,2 13,7 14,2 18,4 7,9 89 2,8 2732 1,1 6,6 7,2
21.05.2019 14,3 14,1 13,2 13,0 14,8 12,2 95 24,4 956 1,9 8,5 2,3
22.05.2019 14,0 14,4 13,1 13,4 18,5 8,1 82 0,2 4464 0,8 5,7 8,0
23.05.2019 14,2 14,8 12,9 13,9 21,6 4,4 74 0,0 7423 0,3 3,5 10,4
24.05.2019 14,9 15,8 15,0 16,3 23,7 7,6 71 0,0 6731 0,4 3,7 10,4
25.05.2019 15,6 16,8 16,3 17,1 23,7 11,3 70 1,7 7268 0,6 4,3 9,7
26.05.2019 15,7 16,0 15,8 16,6 23,5 7,8 69 0,0 7235 0,7 7,0 10,3
27.05.2019 15,5 15,6 14,9 15,2 21,6 10,5 86 6,5 3427 0,5 7,9 8,6
28.05.2019 15,4 15,5 14,9 14,8 20,1 11,1 81 3,8 4595 0,9 10,5 8,5
29.05.2019 15,3 15,5 13,9 14,1 19,5 9,2 73 0,0 5842 0,6 3,8 9,9
30.05.2019 15,3 15,4 14,9 15,6 22,3 7,2 75 0,0 5948 0,7 6,0 10,0
31.05.2019 15,8 16,6 18,3 19,2 25,7 12,6 73 0,0 7086 0,3 3,9 9,2
01.06.2019 16,5 17,7 19,3 20,2 28,2 10,7 72 0,0 7864 0,3 3,9 10,4
02.06.2019 17,4 18,8 20,8 22,1 30,6 11,8 66 0,0 8354 0,6 7,1 10,6
03.06.2019 18,0 19,0 19,8 20,4 30,6 13,4 79 17,9 5192 0,6 9,3 8,0
04.06.2019 18,3 19,8 21,6 22,4 30,4 12,5 70 0,0 7555 0,8 5,9 10,2
05.06.2019 19,2 21,1 23,0 23,9 30,2 15,1 63 0,0 7150 0,6 4,0 10,2
06.06.2019 19,1 18,5 14,7 14,9 22,9 10,2 85 6,0 2011 1,4 12,5 6,7
07.06.2019 17,6 17,9 15,5 15,8 27,7 6,4 78 1,7 7644 0,9 15,7 9,4
08.06.2019 17,7 17,3 15,7 16,0 21,5 10,3 64 0,6 6340 1,5 10,2 10,3
09.06.2019 17,2 17,4 16,5 17,1 24,4 6,7 70 0,0 6153 0,6 4,0 9,9
10.06.2019 17,9 18,6 18,0 18,2 23,0 15,5 85 0,1 3256 0,9 4,4 6,8
11.06.2019 18,2 19,2 17,7 17,6 22,2 13,9 81 0,8 5095 0,3 3,2 9,3
12.06.2019 18,5 18,8 16,5 16,7 21,8 13,6 85 0,2 4265 0,6 6,8 6,9
13.06.2019 18,3 19,0 17,5 18,3 24,9 11,8 69 0,1 8048 0,6 6,9 10,7
14.06.2019 18,4 18,5 16,4 17,2 25,2 9,2 84 1,5 3136 0,4 3,1 7,7
15.06.2019 18,4 19,1 18,9 19,5 26,1 12,1 77 0,2 6033 1,0 9,4 9,7
16.06.2019 18,8 19,8 18,1 18,5 25,1 14,5 78 1,9 5759 0,4 6,7 9,2
17.06.2019 19,1 20,3 19,2 19,8 27,7 9,7 71 0,0 8226 0,7 5,2 10,6
18.06.2019 19,9 21,5 21,6 22,6 30,2 13,2 67 0,0 7296 0,3 5,3 10,8
19.06.2019 20,7 22,2 23,1 23,9 32,1 15,3 68 0,1 7703 0,5 5,3 10,2
20.06.2019 20,8 21,5 20,0 20,3 25,3 16,4 81 2,4 4973 1,0 6,0 9,0
21.06.2019 20,5 21,3 19,3 19,6 25,5 12,6 69 0,0 7370 0,7 5,4 10,7
22.06.2019 20,3 20,7 19,2 19,6 28,9 12,8 72 3,8 6199 0,8 7,0 8,4
23.06.2019 20,4 21,5 22,1 22,1 29,3 14,7 74 0,1 7040 0,9 6,5 10,4
24.06.2019 21,2 22,8 24,7 25,4 32,0 18,1 65 0,0 7711 1,0 5,9 10,7
25.06.2019 21,9 23,5 25,1 26,3 34,9 16,5 64 0,0 7596 0,5 4,9 10,4
26.06.2019 22,7 24,6 27,2 28,1 36,5 18,0 64 0,0 7707 0,4 3,4 10,5
27.06.2019 23,3 24,6 25,6 26,0 31,6 20,2 52 0,0 8090 1,0 5,0 10,7
28.06.2019 22,6 23,1 21,6 22,2 29,8 14,1 55 0,0 8537 0,7 5,6 10,6
29.06.2019 22,2 23,0 23,7 24,4 33,3 14,9 51 0,0 8526 0,8 4,7 10,7
30.06.2019 22,5 23,6 26,6 27,5 39,7 13,9 57 0,0 7974 0,7 6,9 10,5
01.07.2019 23,0 24,0 24,6 24,9 31,5 19,5 59 0,0 6086 1,0 8,9 9,8
02.07.2019 22,4 22,8 20,3 20,7 27,1 13,3 55 0,0 8389 0,8 5,5 10,7
03.07.2019 21,9 22,0 19,6 19,8 26,6 12,1 51 0,0 8432 0,8 5,1 10,6
04.07.2019 21,5 21,7 19,3 19,7 27,7 11,0 49 0,0 8373 0,7 5,8 10,6
05.07.2019 21,5 21,9 20,8 21,3 31,9 11,3 55 0,0 6935 0,5 6,3 9,4
06.07.2019 21,8 22,4 23,6 23,9 34,0 13,6 50 0,0 7241 1,2 8,3 10,2
07.07.2019 21,6 21,5 18,6 18,6 24,1 14,4 67 2,1 4080 0,9 6,4 9,5
08.07.2019 20,7 20,4 16,3 16,4 23,4 9,7 61 0,0 7400 0,8 6,9 10,5
09.07.2019 20,1 19,5 14,7 14,9 22,3 7,0 65 0,0 6475 0,6 5,5 10,3
10.07.2019 19,8 19,6 16,4 16,8 26,6 5,7 59 0,0 7959 0,4 5,5 10,5
11.07.2019 20,1 19,8 17,4 17,5 21,1 14,3 75 2,4 2204 0,5 2,8 7,0
12.07.2019 19,6 19,2 17,3 17,5 23,1 13,7 93 16,4 2637 0,6 10,0 5,1
13.07.2019 19,4 19,3 17,1 17,2 21,0 14,3 86 2,5 3344 0,7 4,2 9,7
14.07.2019 19,5 19,3 16,7 16,8 22,7 11,8 79 0,1 3557 0,7 5,4 8,5
15.07.2019 19,7 19,8 17,7 17,6 23,8 12,7 70 0,0 5654 0,9 6,0 10,1
16.07.2019 19,6 19,6 16,8 17,1 25,7 8,4 71 0,0 7323 0,5 3,7 10,1
17.07.2019 19,9 20,3 19,3 19,4 27,6 12,1 68 0,0 7484 0,7 5,0 10,1
18.07.2019 20,3 20,7 20,2 20,4 30,6 12,7 68 0,1 5299 0,6 6,5 9,2
19.07.2019 20,7 21,2 20,9 21,1 28,0 17,1 74 1,0 3919 0,7 5,6 7,5
20.07.2019 20,7 21,3 23,7 24,0 34,4 13,6 64 0,0 6078 0,8 7,7 9,6
21.07.2019 21,3 22,2 23,6 23,8 31,0 17,3 63 0,0 6047 0,9 7,7 9,0
22.07.2019 21,5 22,4 22,7 23,1 31,9 13,5 59 0,0 6930 0,4 4,3 10,3
23.07.2019 22,1 23,5 25,3 25,8 36,6 14,0 58 0,0 7497 0,5 4,2 10,4
24.07.2019 23,0 24,8 27,6 28,1 38,1 15,3 54 0,0 7481 0,4 4,8 10,2
25.07.2019 23,9 25,6 29,0 29,4 40,4 17,7 52 0,0 7253 0,6 6,0 10,3
26.07.2019 24,3 25,8 29,6 29,9 38,9 19,4 43 0,0 5558 0,7 7,6 9,8
27.07.2019 24,1 24,7 23,8 23,7 29,3 20,3 75 0,4 3276 0,8 4,1 7,2
28.07.2019 22,9 22,6 20,7 20,6 25,2 18,4 89 43,7 2837 1,1 6,6 6,7
29.07.2019 22,4 22,7 21,5 21,5 27,2 17,8 73 0,0 5008 0,9 4,8 9,8
30.07.2019 22,7 22,8 23,3 23,4 32,9 15,5 67 0,0 6674 0,9 10,6 9,7
31.07.2019 22,3 21,9 22,2 21,9 27,6 15,0 60 0,0 6343 1,3 8,9 9,0
01.08.2019 21,4 20,9 19,6 19,7 28,1 12,0 63 0,0 6908 0,5 5,2 10,3
02.08.2019 21,4 21,0 19,1 19,2 27,5 14,1 78 3,7 4006 0,5 11,5 7,4
03.08.2019 21,1 20,9 19,6 19,7 25,8 14,2 76 0,3 4322 0,8 6,7 8,0
04.08.2019 21,1 21,1 20,8 21,0 29,1 13,8 67 0,0 6400 0,5 4,5 9,9
05.08.2019 21,4 21,3 22,6 22,6 31,4 17,2 65 0,5 3937 0,8 7,1 7,1
06.08.2019 21,3 21,4 20,9 20,9 25,4 18,1 79 5,2 2070 0,4 3,4 5,7
07.08.2019 21,3 21,0 19,5 19,4 23,1 16,9 89 9,9 2583 0,8 4,9 8,5
08.08.2019 21,1 21,2 21,5 21,5 28,6 16,7 73 0,4 6133 0,7 5,4 9,3
09.08.2019 21,2 21,4 21,9 22,3 31,1 14,2 79 4,2 3191 0,4 3,7 8,1
10.08.2019 21,5 21,4 22,8 23,0 28,8 14,1 73 0,3 4185 1,5 7,4 8,4
11.08.2019 20,7 20,0 19,5 19,6 28,2 14,5 72 1,5 4959 0,8 7,2 7,6
12.08.2019 20,3 19,6 17,5 17,6 25,1 13,4 82 4,8 4843 0,8 10,3 8,9
13.08.2019 19,6 18,5 17,0 17,0 23,2 12,5 72 0,2 5809 1,3 6,6 10,0
14.08.2019 19,3 18,5 17,7 17,6 24,6 12,0 70 0,0 5248 0,6 5,2 8,8
15.08.2019 19,1 18,4 17,8 17,9 23,6 14,8 80 5,9 2227 1,2 7,6 5,1
16.08.2019 19,2 19,0 18,9 18,9 25,1 13,2 73 0,2 5440 0,7 5,7 8,8
17.08.2019 19,3 18,8 18,3 18,5 22,9 14,7 84 2,6 1782 0,9 4,6 4,3
18.08.2019 19,6 19,8 22,2 22,5 30,5 17,0 81 6,6 4829 1,5 20,0 8,5
19.08.2019 19,9 19,8 19,9 20,1 25,9 14,4 72 0,0 5506 0,9 5,2 9,4
20.08.2019 19,5 18,6 16,4 16,6 20,1 11,4 79 0,0 1819 0,3 2,2 6,8
21.08.2019 19,0 18,4 17,5 17,7 25,2 11,8 73 0,0 5544 0,6 3,5 9,4
22.08.2019 18,8 18,1 18,5 18,9 27,5 10,9 66 0,0 5850 0,5 5,2 9,2
23.08.2019 18,7 18,1 19,1 19,7 29,8 9,2 66 0,0 5822 0,6 5,8 9,4
24.08.2019 18,9 18,8 21,2 21,8 30,8 11,6 66 0,0 5629 0,5 4,3 9,3
25.08.2019 19,7 20,1 22,7 23,0 32,2 13,7 70 0,0 5241 0,5 4,1 8,9
26.08.2019 20,2 20,6 23,5 23,9 32,9 15,0 69 0,0 4564 0,4 3,4 8,9
27.08.2019 20,6 21,1 24,2 24,5 34,6 15,7 69 0,0 5195 0,4 4,4 9,2
28.08.2019 21,0 21,4 25,6 25,7 34,3 20,1 60 0,0 4896 0,7 4,5 8,5
29.08.2019 21,0 21,1 23,0 23,3 33,8 18,2 76 1,2 4291 0,6 10,5 6,6
30.08.2019 20,9 20,8 22,2 22,6 30,7 15,7 70 0,0 5331 0,4 4,3 9,1
31.08.2019 20,6 20,5 23,9 24,1 34,6 14,3 61 0,0 5157 0,7 11,7 9,0
01.09.2019 20,8 20,7 20,7 20,8 25,4 16,2 73 1,0 4229 1,2 6,6 7,8
02.09.2019 19,7 18,4 16,1 16,5 24,4 9,1 65 0,0 5235 0,5 4,8 9,0
03.09.2019 18,6 17,1 16,5 16,7 26,3 5,9 62 0,0 4976 0,5 6,7 8,9
04.09.2019 18,3 17,4 18,8 18,9 27,9 8,7 65 0,0 4960 0,9 6,7 8,7
05.09.2019 18,5 17,8 17,1 17,1 23,0 12,7 67 0,4 3078 1,4 6,1 7,3
06.09.2019 17,6 16,2 14,2 14,4 21,8 7,1 68 0,0 4187 0,6 4,9 8,4
07.09.2019 17,0 15,7 12,7 12,7 15,5 9,7 87 2,0 1455 0,4 2,5 4,9
08.09.2019 16,8 15,7 14,4 14,0 15,8 12,7 96 23,7 1310 0,4 3,0 4,1
09.09.2019 16,6 15,7 13,6 13,7 17,8 9,9 89 0,2 1958 0,6 4,2 6,7
10.09.2019 16,2 14,9 13,0 13,2 21,2 6,1 78 0,0 4279 0,4 3,8 8,0
11.09.2019 15,8 14,5 14,5 14,7 22,9 5,8 73 0,0 3986 0,7 6,4 6,9
12.09.2019 16,5 16,5 19,0 19,1 26,4 14,8 73 0,1 2415 1,0 6,6 7,0
13.09.2019 17,0 16,9 17,6 18,0 24,4 13,0 84 0,0 2678 0,4 4,2 7,4
14.09.2019 17,2 16,7 17,4 17,8 24,6 11,7 75 0,0 4142 0,6 4,3 7,8
15.09.2019 16,8 16,0 17,0 17,4 27,6 8,4 73 0,0 4118 0,3 3,8 7,6
16.09.2019 16,7 16,0 16,4 16,7 24,4 8,7 75 0,0 2462 0,3 3,3 6,2
17.09.2019 17,0 16,6 16,7 16,8 21,3 12,2 66 0,0 3418 1,0 6,1 7,5
18.09.2019 16,1 14,4 11,9 12,3 19,0 3,8 68 0,0 4047 0,5 4,9 7,4
19.09.2019 15,1 13,3 11,3 11,7 18,2 6,0 66 0,0 3919 0,7 6,5 7,5
20.09.2019 14,4 12,7 11,7 12,1 20,3 5,2 61 0,0 3471 0,8 5,2 7,3
21.09.2019 14,1 12,8 14,5 15,1 25,0 4,6 56 0,0 3882 0,7 5,4 7,5
22.09.2019 14,3 13,5 14,6 15,1 23,7 5,1 70 0,0 3072 0,3 3,2 7,5
23.09.2019 15,2 15,3 16,3 16,7 20,8 13,7 87 13,0 1642 1,1 7,0 4,8
24.09.2019 15,4 15,1 14,8 15,0 19,7 10,2 89 1,8 2315 0,6 4,1 6,4
25.09.2019 15,8 15,5 15,8 16,1 18,9 14,0 89 7,8 2111 1,5 7,7 6,5
26.09.2019 15,8 15,6 16,0 16,0 18,1 14,2 96 0,6 962 1,3 3,6 2,6
27.09.2019 16,1 15,7 15,5 15,9 17,7 13,0 94 8,9 878 1,3 5,1 2,2
28.09.2019 15,7 15,1 15,5 15,5 19,5 12,8 85 0,0 1970 1,7 8,3 6,1
29.09.2019 15,5 14,9 16,7 16,8 21,4 13,0 76 4,0 2295 2,0 9,1 5,1
30.09.2019 15,6 15,1 16,2 16,0 19,9 11,8 77 1,1 2558 3,0 13,0 6,1
01.10.2019 15,3 14,7 14,9 15,3 19,3 11,2 90 23,8 974 1,3 4,9 2,4
02.10.2019 15,5 14,7 13,1 13,3 16,4 8,1 82 0,2 1548 1,4 7,8 4,6
03.10.2019 14,5 13,0 9,5 9,5 13,5 5,0 89 1,0 2001 0,8 5,2 5,2
04.10.2019 14,0 12,5 10,2 10,5 14,0 7,8 96 4,7 669 1,1 4,7 0,7
05.10.2019 13,9 13,0 11,1 11,2 14,1 6,6 87 0,4 1521 0,8 4,6 4,7
06.10.2019 13,5 12,2 9,3 9,6 12,1 7,4 95 19,5 544 0,4 2,6 0,2
07.10.2019 13,3 12,4 10,5 10,5 13,5 8,4 94 0,5 980 0,5 3,6 2,7
08.10.2019 13,5 12,8 12,8 13,3 16,1 11,4 99 20,0 428 1,1 5,3 0,0
09.10.2019 13,5 12,8 11,9 12,2 15,5 9,3 93 4,1 1582 1,3 5,8 4,4
10.10.2019 13,3 12,4 12,0 12,1 16,5 9,4 86 3,6 1606 1,6 7,6 5,5
11.10.2019 13,2 12,5 12,7 13,0 18,1 8,5 89 0,0 1366 1,1 4,6 4,1
12.10.2019 13,5 13,2 16,2 16,5 22,7 10,9 79 0,1 1985 1,4 5,7 5,2
13.10.2019 14,2 14,4 18,9 19,5 25,0 15,1 77 0,1 1720 0,9 6,2 4,6
14.10.2019 14,7 14,6 17,4 18,2 24,0 12,2 77 0,0 1822 0,6 5,0 4,8
15.10.2019 14,6 14,2 14,6 15,0 20,9 10,8 90 1,1 1540 0,8 6,6 4,8
16.10.2019 14,5 13,9 13,3 13,6 16,0 11,3 86 2,3 1266 1,4 7,5 4,0
17.10.2019 14,3 13,8 14,7 14,9 19,2 12,4 84 5,6 1013 1,4 5,0 2,7
18.10.2019 14,5 14,1 13,9 14,2 17,5 10,1 91 1,4 967 1,3 6,2 2,3
19.10.2019 14,1 13,5 13,6 13,8 16,1 10,1 90 0,4 984 1,3 4,6 3,1
20.10.2019 14,3 14,2 14,6 15,2 17,8 13,6 97 4,6 1059 0,5 3,4 3,3
21.10.2019 14,6 14,4 14,8 15,1 18,9 12,8 92 0,1 792 0,7 5,5 1,9
22.10.2019 14,6 14,1 12,8 13,1 17,2 10,2 90 0,0 1324 0,3 2,4 4,2
23.10.2019 14,2 13,3 11,8 12,1 16,0 9,0 95 0,0 1002 0,8 5,0 3,7
24.10.2019 14,0 13,5 13,9 14,1 19,3 9,5 92 0,0 1347 0,7 3,7 4,8
25.10.2019 14,1 13,4 13,2 13,7 17,5 10,4 88 0,0 1350 0,8 5,7 4,7
26.10.2019 13,7 12,8 12,8 13,1 18,2 8,3 88 0,0 1645 1,0 3,8 5,4
27.10.2019 13,6 12,8 11,3 11,5 16,1 7,5 91 1,0 613 0,9 4,5 1,0
28.10.2019 12,8 11,0 5,7 5,8 9,4 1,7 97 0,1 1362 0,5 4,1 5,3
29.10.2019 12,0 10,4 6,2 6,4 10,4 3,9 94 0,0 977 0,6 4,0 3,3
30.10.2019 11,2 9,1 5,0 5,3 9,5 1,0 86 0,0 1408 1,1 5,9 5,3
31.10.2019 10,4 8,2 4,1 4,6 10,7 -0,3 82 0,0 1372 1,1 6,4 4,0
01.11.2019 9,9 8,3 6,8 7,0 12,8 -0,9 98 4,3 405 0,9 5,1 0,0
02.11.2019 10,9 10,9 13,6 14,1 17,4 11,9 93 2,3 756 1,7 5,9 1,7
03.11.2019 11,7 11,5 12,4 12,8 15,9 11,1 92 3,6 1022 1,7 6,0 3,6
04.11.2019 11,9 11,3 10,8 11,1 13,8 9,7 95 9,7 701 1,5 8,0 1,5
05.11.2019 11,5 10,5 8,9 9,1 12,9 5,5 91 0,9 1143 0,9 3,4 3,3
06.11.2019 11,2 10,2 8,8 8,9 11,8 6,6 96 2,2 791 0,8 3,7 2,6
07.11.2019 11,1 10,1 8,6 8,9 11,5 6,5 92 0,9 829 1,4 5,4 2,0
08.11.2019 10,6 9,2 5,9 6,0 7,5 4,4 99 7,6 283 0,3 2,4 0,0
09.11.2019 10,2 8,8 5,7 5,9 9,2 2,9 95 0,2 990 0,9 6,2 3,2
10.11.2019 9,3 7,3 1,8 1,8 4,6 -1,7 99 0,0 678 0,5 3,7 1,7
11.11.2019 9,0 7,4 3,0 3,0 4,6 2,0 97 1,9 364 1,1 4,4 0,0
12.11.2019 8,6 7,2 5,4 5,6 9,1 3,3 93 1,5 984 1,4 5,8 2,9
13.11.2019 8,4 6,8 3,7 3,9 5,6 0,7 96 0,1 542 0,8 3,4 0,2
14.11.2019 8,1 6,5 4,2 4,6 9,2 -0,7 88 0,0 1053 0,7 3,9 3,6
15.11.2019 7,9 6,4 4,0 4,2 6,7 2,6 91 0,0 626 0,8 4,0 1,0
16.11.2019 7,7 6,2 2,8 3,2 7,7 -1,5 97 0,1 890 0,4 2,5 2,8
17.11.2019 7,2 5,6 3,0 3,1 5,6 -2,1 100 2,1 231 0,5 4,5 0,0
18.11.2019 7,5 6,4 4,6 4,5 5,3 3,8 96 0,3 385 1,4 4,4 0,0
19.11.2019 7,5 6,3 4,3 4,6 7,6 -0,5 95 1,1 601 0,7 3,8 1,5
20.11.2019 7,0 5,1 1,1 1,3 5,6 -1,9 97 0,0 775 0,6 5,6 2,0
21.11.2019 6,5 4,9 1,4 1,5 3,7 -0,7 99 0,0 813 0,3 2,3 2,3
22.11.2019 6,4 5,1 2,3 2,3 5,9 -1,1 98 0,1 843 0,6 3,5 3,4
23.11.2019 6,4 5,3 6,1 6,5 10,8 0,3 88 0,0 859 1,1 4,7 2,8
24.11.2019 6,6 5,4 2,7 3,1 7,5 0,0 99 0,0 639 0,3 2,4 0,8
25.11.2019 6,5 5,5 3,8 3,9 6,4 0,0 100 0,7 405 0,2 1,9 0,1
26.11.2019 7,0 6,7 7,9 8,1 11,3 4,4 96 0,1 546 0,8 4,1 1,2
27.11.2019 7,6 7,3 9,0 9,4 12,8 4,9 92 1,7 433 1,8 6,5 0,3
28.11.2019 8,2 8,2 10,4 10,6 12,2 9,4 85 0,3 548 2,4 7,2 1,1
29.11.2019 8,4 7,9 7,0 7,2 10,7 2,2 88 1,1 577 1,3 6,2 1,1
30.11.2019 7,7 6,1 3,0 3,5 7,0 0,4 92 0,0 703 0,5 2,7 1,9
01.12.2019 6,7 4,8 1,6 1,8 3,4 0,2 88 0,0 352 1,1 5,0 0,0
02.12.2019 6,2 4,4 1,2 1,5 5,3 -3,4 91 0,0 812 0,3 2,4 2,7
03.12.2019 5,9 4,5 2,0 2,3 5,3 -2,2 97 0,5 367 0,4 1,7 0,0
04.12.2019 5,5 3,7 0,3 0,7 5,9 -3,1 92 0,1 750 0,8 5,1 1,9
05.12.2019 4,8 2,6 -2,1 -2,0 -0,5 -4,7 100 0,0 301 0,8 3,1 0,0
06.12.2019 4,5 3,2 1,8 1,8 6,8 -1,3 97 6,8 470 1,8 6,2 0,2
07.12.2019 5,3 5,2 8,2 8,5 10,5 5,9 92 0,4 498 2,1 7,3 0,4
08.12.2019 6,3 6,4 9,2 9,5 11,3 7,5 87 1,9 48 2,7 9,8 0,0
09.12.2019 6,8 6,5 7,4 7,7 11,6 5,3 86 2,7 197 3,2 10,0 0,0
10.12.2019 6,4 5,1 2,9 3,4 6,6 -0,6 88 0,0 835 1,5 5,9 2,9
11.12.2019 5,7 4,3 2,4 2,5 3,8 0,8 86 8,9 207 2,1 5,0 0,0
12.12.2019 5,4 4,4 3,5 3,7 5,8 1,1 96 0,4 413 1,9 5,8 0,3
13.12.2019 5,3 4,2 4,1 4,4 8,2 1,0 91 7,6 195 3,0 9,9 0,0
14.12.2019 5,6 5,1 7,3 7,7 13,4 4,9 82 1,0 742 4,2 13,5 1,8
15.12.2019 6,2 6,1 8,7 9,0 11,6 6,6 90 4,6 270 2,5 8,4 0,0
16.12.2019 6,8 6,7 8,3 9,0 12,4 5,1 94 0,9 503 1,1 4,4 0,3
17.12.2019 7,0 6,7 8,5 9,0 12,7 5,9 87 0,0 610 1,0 4,4 1,7
18.12.2019 7,4 7,4 9,1 9,7 12,9 2,8 89 0,0 432 1,1 6,1 0,2
19.12.2019 6,9 5,9 3,1 3,2 5,4 0,6 100 0,2 468 0,5 3,6 0,3
20.12.2019 6,6 5,7 4,3 4,5 8,0 1,6 100 7,5 115 1,3 7,6 0,0
21.12.2019 6,5 5,6 5,3 5,9 9,0 2,3 97 0,1 644 1,4 5,4 1,2
22.12.2019 6,4 5,9 7,5 7,9 10,9 2,7 90 1,7 358 2,7 8,9 0,2
23.12.2019 6,8 6,5 7,5 7,8 10,1 5,7 88 0,1 472 2,4 7,9 0,4
24.12.2019 6,8 6,2 6,8 7,1 9,6 5,0 93 3,2 248 2,4 8,9 0,2
25.12.2019 6,9 6,5 7,4 7,7 9,2 4,6 89 0,1 328 2,0 9,7 0,4
26.12.2019 6,7 5,8 4,2 4,5 6,5 2,4 97 0,0 711 0,6 4,1 2,7
27.12.2019 6,6 5,8 5,0 5,4 6,6 2,7 96 2,2 357 1,0 5,2 0,1
28.12.2019 6,0 4,1 0,7 1,1 4,5 -1,7 90 0,0 888 0,9 4,4 3,2
29.12.2019 4,7 2,3 -1,8 -1,3 3,2 -5,2 94 0,0 1117 0,4 2,9 3,4
30.12.2019 3,8 1,4 -2,1 -1,6 3,2 -5,2 95 0,0 1002 0,5 4,6 3,3
31.12.2019 3,4 1,5 -1,7 -1,8 -1,6 -2,0 100 0,0 0 2,5 5,8 0,0
Landesbetrieb Landwirtschaft Hessen 2013

  CSV-Datei: Allmendfeld19.csv